Time;durP1;ratioP1;P1;durP2;ratioP2;P2;SDS_P1;SDS_P2;PMS_P1;PMS_P2;Temp;Humidity;BMP_temperature;BMP_pressure;BME280_temperature;BME280_humidity;BME280_pressure;Samples;Min_cycle;Max_cycle;Signal;HPM_P1;HPM_P2
2023/05/27 00:01:38;;;;;;;12.07;4.03;;;8.80;99.90;;;;;;5000915;28;20962;-77
2023/05/27 00:04:06;;;;;;;14.10;4.10;;;8.80;99.90;;;;;;5017375;28;20738;-76
2023/05/27 00:06:33;;;;;;;17.03;4.00;;;8.70;99.90;;;;;;5014876;28;20233;-76
2023/05/27 00:09:00;;;;;;;14.13;4.20;;;8.70;99.90;;;;;;5016476;28;21000;-76
2023/05/27 00:11:28;;;;;;;8.93;3.57;;;8.70;99.90;;;;;;5016444;28;20236;-76
2023/05/27 00:13:55;;;;;;;11.17;4.00;;;8.60;99.90;;;;;;5019333;28;20665;-76
2023/05/27 00:16:22;;;;;;;13.63;3.50;;;8.60;99.90;;;;;;5016029;28;20231;-76
2023/05/27 00:18:49;;;;;;;10.00;3.60;;;8.50;99.90;;;;;;5000000;28;20239;-76
2023/05/27 00:21:17;;;;;;;9.00;3.30;;;8.50;99.90;;;;;;5014164;28;20730;-76
2023/05/27 00:23:47;;;;;;;15.70;4.10;;;8.40;99.90;;;;;;5019726;28;20236;-76
2023/05/27 00:26:14;;;;;;;10.27;3.67;;;8.40;99.90;;;;;;5016232;28;20213;-75
2023/05/27 00:28:45;;;;;;;15.17;3.87;;;8.30;99.90;;;;;;5017272;28;20263;-76
2023/05/27 00:31:11;;;;;;;16.43;4.47;;;8.30;99.90;;;;;;4996293;28;20221;-76
2023/05/27 00:33:39;;;;;;;12.97;4.40;;;8.30;99.90;;;;;;4998938;28;20267;-76
2023/05/27 00:36:06;;;;;;;12.70;4.13;;;8.20;99.90;;;;;;5009881;28;20213;-76
2023/05/27 00:38:35;;;;;;;12.83;3.90;;;8.20;99.90;;;;;;5015754;28;20244;-76
2023/05/27 00:41:04;;;;;;;15.40;4.00;;;8.10;99.90;;;;;;5014710;28;20249;-76
2023/05/27 00:43:32;;;;;;;14.57;4.30;;;8.10;99.90;;;;;;4995590;28;20258;-76
2023/05/27 00:45:58;;;;;;;14.40;3.93;;;8.00;99.90;;;;;;5014070;28;20786;-76
2023/05/27 00:48:26;;;;;;;11.53;3.60;;;8.00;99.90;;;;;;5015639;28;20734;-76
2023/05/27 00:50:53;;;;;;;11.40;4.17;;;7.90;99.90;;;;;;4999753;28;20233;-76
2023/05/27 00:53:21;;;;;;;14.33;4.17;;;7.90;99.90;;;;;;5014111;28;20664;-76
2023/05/27 00:55:51;;;;;;;11.13;3.70;;;7.90;99.90;;;;;;5020781;28;20224;-76
2023/05/27 00:58:21;;;;;;;9.73;3.87;;;7.80;99.90;;;;;;4993393;28;20312;-76
2023/05/27 01:00:48;;;;;;;11.43;4.10;;;7.80;99.90;;;;;;5000604;28;20302;-77
2023/05/27 01:03:15;;;;;;;15.53;5.13;;;7.70;99.90;;;;;;5001270;28;21021;-76
2023/05/27 01:05:42;;;;;;;11.80;4.30;;;7.70;99.90;;;;;;5000272;28;20232;-76
2023/05/27 01:08:22;;;;;;;13.40;4.43;;;7.60;99.90;;;;;;5001707;28;20641;-76
2023/05/27 01:10:52;;;;;;;11.90;4.20;;;7.60;99.90;;;;;;5019988;28;20231;-76
2023/05/27 01:13:31;;;;;;;12.33;4.30;;;7.60;99.90;;;;;;4996153;28;20225;-75
2023/05/27 01:16:00;;;;;;;15.13;4.63;;;7.50;99.90;;;;;;5000754;28;20259;-76
2023/05/27 01:18:30;;;;;;;13.43;4.57;;;7.50;99.90;;;;;;5014473;28;20230;-75
2023/05/27 01:21:03;;;;;;;11.63;4.33;;;7.50;99.90;;;;;;5001242;28;20749;-76
2023/05/27 01:23:31;;;;;;;10.40;3.67;;;7.50;99.90;;;;;;5014012;28;20228;-75
2023/05/27 01:25:58;;;;;;;11.13;3.80;;;7.40;99.90;;;;;;5020466;28;20299;-76
2023/05/27 01:28:24;;;;;;;14.70;4.10;;;7.40;99.90;;;;;;5001812;28;20308;-76
2023/05/27 01:30:58;;;;;;;13.57;4.20;;;7.40;99.90;;;;;;5017343;28;20974;-76
2023/05/27 01:33:31;;;;;;;10.80;4.23;;;7.30;99.90;;;;;;5048200;23;20286;-90
2023/05/27 01:36:05;;;;;;;10.83;4.43;;;7.30;99.90;;;;;;5034130;28;20228;-91
2023/05/27 01:38:35;;;;;;;11.73;4.17;;;7.30;99.90;;;;;;5018750;28;22183;-91
2023/05/27 01:41:02;;;;;;;9.67;3.47;;;7.30;99.90;;;;;;5024531;28;20232;-92
2023/05/27 01:43:30;;;;;;;10.13;4.13;;;7.20;99.90;;;;;;5017371;28;20222;-91
2023/05/27 01:45:58;;;;;;;8.47;3.67;;;7.20;99.90;;;;;;5025980;28;20347;-91
2023/05/27 01:48:25;;;;;;;10.30;3.43;;;7.10;99.90;;;;;;5025475;28;20888;-91
2023/05/27 01:50:52;;;;;;;15.23;4.20;;;7.10;99.90;;;;;;5021633;28;20225;-92
2023/05/27 01:53:19;;;;;;;11.73;3.53;;;7.10;99.90;;;;;;5019863;28;20278;-91
2023/05/27 01:55:47;;;;;;;9.23;3.63;;;7.10;99.90;;;;;;5026698;28;20256;-92
2023/05/27 01:58:14;;;;;;;9.27;3.40;;;7.20;99.90;;;;;;5017694;28;20221;-92
2023/05/27 02:00:41;;;;;;;15.43;4.40;;;7.00;99.90;;;;;;5024762;28;20805;-92
2023/05/27 02:03:08;;;;;;;12.17;4.43;;;7.00;99.90;;;;;;5021148;28;20277;-92
2023/05/27 02:05:35;;;;;;;10.07;3.57;;;7.00;99.90;;;;;;5023199;28;20292;-91
2023/05/27 02:08:02;;;;;;;12.70;4.33;;;7.00;99.90;;;;;;5019270;28;20224;-92
2023/05/27 02:10:29;;;;;;;14.67;4.37;;;6.90;99.90;;;;;;5023458;28;20402;-92
2023/05/27 02:12:57;;;;;;;15.60;4.27;;;6.90;99.90;;;;;;5036364;28;20308;-92
2023/05/27 02:15:26;;;;;;;11.87;4.43;;;6.90;99.90;;;;;;5020836;28;20258;-91
2023/05/27 02:17:55;;;;;;;13.00;4.83;;;6.90;99.90;;;;;;5030227;28;20314;-92
2023/05/27 02:20:22;;;;;;;10.80;4.40;;;6.80;99.90;;;;;;5022703;28;20274;-92
2023/05/27 02:22:50;;;;;;;11.10;3.93;;;6.90;99.90;;;;;;5023859;28;20232;-92
2023/05/27 02:25:17;;;;;;;11.53;4.10;;;6.80;99.90;;;;;;5024600;28;20227;-92
2023/05/27 02:27:48;;;;;;;8.37;3.93;;;6.80;99.90;;;;;;5023563;28;20227;-92
2023/05/27 02:30:16;;;;;;;15.93;5.03;;;6.80;99.90;;;;;;5022657;28;20224;-92
2023/05/27 02:32:43;;;;;;;11.27;4.00;;;6.80;99.90;;;;;;5053402;28;20240;-91
2023/05/27 02:35:13;;;;;;;12.73;4.70;;;6.70;99.90;;;;;;5026048;28;20278;-92
2023/05/27 02:37:40;;;;;;;14.60;4.13;;;6.70;99.90;;;;;;5019478;28;20240;-92
2023/05/27 02:40:09;;;;;;;13.77;4.20;;;6.70;99.90;;;;;;5029980;28;20224;-92
2023/05/27 02:42:35;;;;;;;14.00;4.43;;;6.70;99.90;;;;;;5028308;28;20227;-92
2023/05/27 02:45:02;;;;;;;9.27;3.70;;;6.70;99.90;;;;;;5025463;28;20228;-92
2023/05/27 02:47:30;;;;;;;9.20;3.53;;;6.70;99.90;;;;;;5025092;28;21462;-92
2023/05/27 02:49:57;;;;;;;8.63;4.20;;;6.60;99.90;;;;;;5025110;28;20243;-91
2023/05/27 02:52:24;;;;;;;9.17;4.47;;;6.60;99.90;;;;;;5026208;28;20307;-91
2023/05/27 02:54:51;;;;;;;10.53;4.20;;;6.60;99.90;;;;;;5024083;28;20899;-92
2023/05/27 02:57:18;;;;;;;12.87;4.60;;;6.60;99.90;;;;;;5021327;28;20283;-92
2023/05/27 02:59:45;;;;;;;14.00;4.50;;;6.50;99.90;;;;;;5025132;28;20590;-91
2023/05/27 03:02:14;;;;;;;12.57;4.00;;;6.50;99.90;;;;;;5021293;28;20228;-92
2023/05/27 03:04:42;;;;;;;16.23;4.73;;;6.50;99.90;;;;;;5023680;28;20221;-91
2023/05/27 03:07:12;;;;;;;10.90;4.17;;;6.50;99.90;;;;;;5023758;28;20224;-92
2023/05/27 03:09:39;;;;;;;14.33;4.70;;;6.50;99.90;;;;;;5021518;28;20237;-92
2023/05/27 03:12:07;;;;;;;18.97;4.80;;;6.50;99.90;;;;;;5024084;28;20278;-91
2023/05/27 03:14:33;;;;;;;14.80;4.53;;;6.50;99.90;;;;;;5021731;28;20226;-92
2023/05/27 03:17:00;;;;;;;14.90;4.40;;;6.40;99.90;;;;;;5023662;28;20221;-91
2023/05/27 03:19:27;;;;;;;11.07;4.53;;;6.50;99.90;;;;;;5024701;28;20302;-91
2023/05/27 03:21:56;;;;;;;9.57;4.33;;;6.40;99.90;;;;;;5029359;28;20220;-91
2023/05/27 03:24:24;;;;;;;16.10;5.53;;;6.40;99.90;;;;;;5026051;28;20231;-91
2023/05/27 03:26:52;;;;;;;16.13;5.30;;;6.40;99.90;;;;;;5022757;28;20224;-92
2023/05/27 03:29:19;;;;;;;9.67;4.53;;;6.40;99.90;;;;;;5028505;28;20217;-92
2023/05/27 03:31:46;;;;;;;12.33;4.70;;;6.40;99.90;;;;;;5028280;28;20584;-92
2023/05/27 03:34:16;;;;;;;8.17;3.97;;;6.40;99.90;;;;;;5019561;28;20235;-91
2023/05/27 03:36:46;;;;;;;10.40;4.23;;;6.40;99.90;;;;;;5024621;28;20322;-91
2023/05/27 03:39:14;;;;;;;14.80;5.63;;;6.40;99.90;;;;;;5019718;28;20251;-92
2023/05/27 03:41:48;;;;;;;15.93;5.10;;;6.40;99.90;;;;;;5021273;28;20235;-92
2023/05/27 03:44:16;;;;;;;11.07;4.73;;;6.40;99.90;;;;;;5034875;28;20760;-92
2023/05/27 03:46:43;;;;;;;20.47;8.80;;;6.40;99.90;;;;;;5028875;28;20232;-92
2023/05/27 03:49:10;;;;;;;12.60;6.07;;;6.40;99.90;;;;;;5029293;28;20223;-92
2023/05/27 03:51:36;;;;;;;13.70;6.33;;;6.40;99.90;;;;;;5028225;28;20232;-92
2023/05/27 03:54:03;;;;;;;9.53;4.10;;;6.50;99.90;;;;;;5023031;28;20952;-92
2023/05/27 03:56:36;;;;;;;14.63;5.90;;;6.50;99.90;;;;;;5018788;28;20900;-92
2023/05/27 03:59:02;;;;;;;24.30;22.03;;;6.50;99.90;;;;;;5020888;28;20227;-92
2023/05/27 04:01:30;;;;;;;14.53;7.93;;;6.60;99.90;;;;;;5023743;28;20219;-92
2023/05/27 04:03:56;;;;;;;12.93;5.97;;;6.50;99.90;;;;;;5025626;28;20313;-92
2023/05/27 04:06:23;;;;;;;12.43;5.00;;;6.60;99.90;;;;;;5023583;28;20252;-92
2023/05/27 04:08:52;;;;;;;9.77;4.67;;;6.60;99.90;;;;;;5021342;28;20232;-92
2023/05/27 04:11:18;;;;;;;13.93;4.63;;;6.60;99.90;;;;;;5021752;28;20251;-92
2023/05/27 04:13:48;;;;;;;15.00;7.77;;;6.70;99.90;;;;;;5019930;28;20228;-91
2023/05/27 04:16:16;;;;;;;15.23;5.40;;;6.70;99.90;;;;;;5025389;28;20314;-91
2023/05/27 04:18:50;;;;;;;14.13;5.07;;;6.80;99.90;;;;;;5024992;28;20223;-91
2023/05/27 04:21:17;;;;;;;14.00;5.27;;;6.80;99.90;;;;;;5018237;28;20230;-92
2023/05/27 04:23:44;;;;;;;15.67;6.07;;;6.80;99.90;;;;;;5027224;28;20244;-92
2023/05/27 04:26:11;;;;;;;13.47;5.60;;;6.90;99.90;;;;;;5019712;28;20315;-92
2023/05/27 04:28:41;;;;;;;14.27;5.93;;;6.90;99.90;;;;;;5024706;28;20304;-91
2023/05/27 04:31:12;;;;;;;14.73;5.30;;;7.00;99.90;;;;;;5023115;28;20225;-91
2023/05/27 04:33:44;;;;;;;10.40;4.60;;;7.00;99.90;;;;;;5054168;28;20310;-91
2023/05/27 04:36:11;;;;;;;9.87;4.47;;;7.10;99.90;;;;;;5023017;28;20234;-91
2023/05/27 04:38:56;;;;;;;13.20;5.27;;;7.10;99.90;;;;;;5020999;28;20220;-90
2023/05/27 04:41:28;;;;;;;12.43;5.00;;;7.20;99.90;;;;;;5023845;28;20784;-92
2023/05/27 04:44:10;;;;;;;13.50;4.63;;;7.20;99.90;;;;;;5055581;28;20247;-91
2023/05/27 04:46:47;;;;;;;9.90;4.60;;;7.30;99.90;;;;;;5025107;28;20220;-92
2023/05/27 04:49:15;;;;;;;11.93;4.30;;;7.40;99.90;;;;;;5023601;28;20224;-93
2023/05/27 04:51:42;;;;;;;16.73;9.17;;;7.40;99.90;;;;;;5023812;28;20220;-92
2023/05/27 04:54:09;;;;;;;37.23;24.83;;;7.50;99.90;;;;;;5017422;28;20222;-91
2023/05/27 04:56:36;;;;;;;21.00;8.77;;;7.60;99.90;;;;;;5022844;28;20239;-92
2023/05/27 04:59:04;;;;;;;15.03;5.43;;;7.60;99.90;;;;;;5022279;28;20625;-92
2023/05/27 05:01:48;;;;;;;24.40;12.50;;;7.70;99.90;;;;;;5020155;28;20228;-92
2023/05/27 05:04:22;;;;;;;25.53;13.70;;;7.70;99.90;;;;;;5017325;28;20232;-92
2023/05/27 05:06:55;;;;;;;30.50;17.43;;;7.80;99.90;;;;;;5026074;28;20222;-93
2023/05/27 05:09:23;;;;;;;17.07;8.00;;;7.90;99.90;;;;;;5023414;28;20306;-93
2023/05/27 05:11:50;;;;;;;13.93;5.60;;;7.90;99.90;;;;;;5025222;28;20237;-92
2023/05/27 05:14:17;;;;;;;35.73;21.27;;;8.00;99.90;;;;;;5011330;28;20248;-92
2023/05/27 05:16:46;;;;;;;17.77;6.03;;;8.10;99.90;;;;;;5018196;28;20229;-92
2023/05/27 05:19:13;;;;;;;34.57;19.50;;;8.10;99.90;;;;;;5016271;28;20244;-92
2023/05/27 05:21:42;;;;;;;15.47;6.47;;;8.20;99.90;;;;;;5024629;28;20224;-94
2023/05/27 05:24:11;;;;;;;14.03;5.13;;;8.30;99.90;;;;;;5022508;28;20231;-91
2023/05/27 05:26:40;;;;;;;15.93;4.67;;;8.30;99.90;;;;;;5027926;28;20224;-91
2023/05/27 05:29:07;;;;;;;21.43;6.73;;;8.40;99.90;;;;;;5022896;28;20422;-91
2023/05/27 05:31:35;;;;;;;19.20;9.17;;;8.50;99.90;;;;;;5023870;28;20233;-93
2023/05/27 05:34:03;;;;;;;18.97;7.07;;;8.50;99.90;;;;;;5024772;28;20821;-93
2023/05/27 05:36:34;;;;;;;15.00;4.77;;;8.60;99.90;;;;;;5016664;28;20229;-94
2023/05/27 05:39:08;;;;;;;17.07;5.87;;;8.70;99.90;;;;;;5039816;28;20256;-95
2023/05/27 05:41:39;;;;;;;13.93;5.70;;;8.70;99.90;;;;;;5021105;28;20217;-94
2023/05/27 05:44:06;;;;;;;14.43;4.63;;;8.80;99.90;;;;;;5045937;23;20224;-80
2023/05/27 05:46:34;;;;;;;13.83;4.47;;;8.90;99.90;;;;;;5051927;28;20278;-80
2023/05/27 05:49:01;;;;;;;17.23;5.10;;;9.00;99.90;;;;;;5040229;28;20235;-80
2023/05/27 05:51:36;;;;;;;16.73;4.93;;;9.10;99.90;;;;;;5039155;28;20243;-80
2023/05/27 05:54:03;;;;;;;13.63;4.67;;;9.20;99.90;;;;;;5035517;28;20250;-80
2023/05/27 05:56:34;;;;;;;17.30;5.10;;;9.30;99.90;;;;;;5048553;28;20836;-80
2023/05/27 05:59:01;;;;;;;15.50;4.70;;;9.40;99.90;;;;;;5029456;28;20644;-80
2023/05/27 06:01:31;;;;;;;16.13;4.73;;;9.50;99.90;;;;;;5019529;28;20224;-80
2023/05/27 06:04:03;;;;;;;16.30;4.53;;;9.60;99.90;;;;;;5028597;28;20255;-80
2023/05/27 06:06:34;;;;;;;11.77;4.10;;;9.60;99.90;;;;;;5034026;28;20240;-80
2023/05/27 06:09:24;;;;;;;11.97;4.93;;;9.80;99.90;;;;;;5028309;28;20236;-80
2023/05/27 06:11:55;;;;;;;12.17;4.00;;;9.90;99.90;;;;;;5035318;28;20219;-81
2023/05/27 06:14:23;;;;;;;11.77;4.50;;;10.00;99.90;;;;;;5030002;28;20292;-80
2023/05/27 06:16:51;;;;;;;14.83;4.53;;;10.10;99.90;;;;;;5039935;28;20262;-80
2023/05/27 06:19:17;;;;;;;12.70;4.40;;;10.20;99.90;;;;;;5032020;28;20250;-80
2023/05/27 06:21:44;;;;;;;14.60;4.83;;;10.30;99.90;;;;;;5040222;28;20225;-80
2023/05/27 06:24:29;;;;;;;11.83;4.33;;;10.40;99.90;;;;;;5038451;28;20291;-81
2023/05/27 06:27:08;;;;;;;12.03;4.67;;;10.50;99.90;;;;;;5034036;28;20240;-80
2023/05/27 06:29:35;;;;;;;13.63;4.20;;;10.60;99.90;;;;;;5035038;28;20222;-80
2023/05/27 06:32:02;;;;;;;15.40;4.50;;;10.70;99.90;;;;;;5032331;28;20261;-81
2023/05/27 06:34:29;;;;;;;16.80;5.13;;;10.80;99.90;;;;;;5036339;28;20230;-80
2023/05/27 06:36:56;;;;;;;13.63;4.73;;;10.90;99.90;;;;;;5033496;28;20293;-80
2023/05/27 06:39:22;;;;;;;13.53;4.70;;;11.00;99.90;;;;;;5035044;28;20234;-80
2023/05/27 06:41:49;;;;;;;14.03;4.70;;;11.20;99.90;;;;;;5036318;28;20899;-80
2023/05/27 06:44:37;;;;;;;11.43;4.10;;;11.40;99.90;;;;;;5035577;28;20702;-80
2023/05/27 06:47:13;;;;;;;13.53;4.43;;;11.70;99.90;;;;;;5035889;28;20248;-80
2023/05/27 06:49:41;;;;;;;12.07;4.47;;;11.90;99.90;;;;;;5038117;28;20274;-80
2023/05/27 06:52:08;;;;;;;15.60;5.40;;;12.10;99.90;;;;;;5033596;28;20225;-80
2023/05/27 06:54:47;;;;;;;9.20;4.27;;;12.40;99.90;;;;;;5038333;28;20234;-80
2023/05/27 06:57:32;;;;;;;10.20;3.40;;;12.80;99.90;;;;;;5035351;28;20340;-80
2023/05/27 07:00:13;;;;;;;13.97;4.60;;;13.10;99.90;;;;;;5034837;28;20310;-81
2023/05/27 07:02:49;;;;;;;12.63;4.60;;;13.60;99.90;;;;;;5035366;28;20226;-81
2023/05/27 07:05:16;;;;;;;9.77;3.90;;;14.10;99.90;;;;;;5035918;28;20246;-81
2023/05/27 07:07:43;;;;;;;10.67;3.77;;;14.50;99.90;;;;;;5039582;28;20224;-81
2023/05/27 07:10:10;;;;;;;15.50;4.70;;;15.00;99.90;;;;;;5038924;28;20250;-80
2023/05/27 07:12:37;;;;;;;12.77;4.73;;;15.40;99.90;;;;;;5034955;28;20319;-81
2023/05/27 07:15:22;;;;;;;13.23;4.03;;;15.80;99.90;;;;;;5036087;28;20216;-80
2023/05/27 07:17:49;;;;;;;12.50;3.87;;;16.40;99.90;;;;;;5037126;28;20224;-81
2023/05/27 07:20:16;;;;;;;8.77;3.75;;;16.80;99.90;;;;;;5035457;28;20223;-82
2023/05/27 07:22:43;;;;;;;15.05;4.40;;;17.30;99.90;;;;;;5040796;28;20765;-80
2023/05/27 07:25:11;;;;;;;12.23;4.20;;;17.90;99.90;;;;;;5038371;28;20743;-81
2023/05/27 07:27:38;;;;;;;14.48;5.97;;;18.50;99.90;;;;;;5035562;28;20281;-81
2023/05/27 07:30:06;;;;;;;11.70;3.97;;;19.10;99.90;;;;;;5040573;28;20342;-80
2023/05/27 07:32:57;;;;;;;10.52;3.53;;;19.60;99.20;;;;;;5041395;28;20224;-81
2023/05/27 07:35:23;;;;;;;10.45;3.60;;;20.20;98.70;;;;;;5038478;28;20254;-80
2023/05/27 07:37:50;;;;;;;9.98;3.80;;;20.70;98.10;;;;;;5043729;28;20282;-80
2023/05/27 07:40:17;;;;;;;12.48;3.72;;;21.00;97.80;;;;;;5035899;28;20228;-80
2023/05/27 07:42:44;;;;;;;11.77;4.00;;;21.50;97.20;;;;;;5042396;28;20244;-83
2023/05/27 07:45:11;;;;;;;9.10;3.50;;;21.90;96.50;;;;;;5037182;28;20220;-82
2023/05/27 07:47:39;;;;;;;12.77;3.88;;;22.40;95.70;;;;;;5040005;28;20220;-81
2023/05/27 07:50:09;;;;;;;10.23;3.70;;;22.80;94.90;;;;;;5036589;28;20308;-81
2023/05/27 07:52:53;;;;;;;10.13;3.70;;;23.20;93.20;;;;;;5036037;28;20591;-81
2023/05/27 07:55:25;;;;;;;10.25;3.42;;;23.60;93.40;;;;;;5039979;28;20230;-81
2023/05/27 07:57:52;;;;;;;14.43;5.63;;;24.00;91.70;;;;;;5040850;28;21031;-81
2023/05/27 08:00:19;;;;;;;8.27;3.47;;;24.30;91.30;;;;;;5038189;28;20220;-80
2023/05/27 08:02:54;;;;;;;10.73;3.28;;;24.50;85.90;;;;;;5038643;28;20228;-81
2023/05/27 08:05:32;;;;;;;10.30;3.53;;;24.70;85.40;;;;;;5039225;28;20270;-83
2023/05/27 08:08:06;;;;;;;10.48;3.58;;;24.90;85.80;;;;;;5040433;28;21054;-81
2023/05/27 08:10:52;;;;;;;10.25;3.70;;;25.00;79.20;;;;;;5043782;28;20230;-81
2023/05/27 08:13:42;;;;;;;11.88;3.72;;;25.10;79.40;;;;;;5035652;28;20251;-81
2023/05/27 08:16:22;;;;;;;10.75;3.53;;;25.00;76.60;;;;;;5037025;28;20216;-82
2023/05/27 08:19:08;;;;;;;8.77;3.50;;;24.80;76.10;;;;;;5040433;28;20255;-81
2023/05/27 08:21:49;;;;;;;8.40;3.40;;;24.60;73.50;;;;;;5033555;28;20223;-81
2023/05/27 08:24:35;;;;;;;13.73;4.30;;;24.50;77.50;;;;;;5045082;28;20444;-82
2023/05/27 08:27:44;;;;;;;10.77;3.80;;;24.50;76.20;;;;;;5037278;28;20228;-81
2023/05/27 08:30:13;;;;;;;6.80;3.30;;;24.50;75.50;;;;;;5039288;28;20220;-81
2023/05/27 08:32:51;;;;;;;10.02;3.83;;;24.60;76.60;;;;;;5034368;28;20291;-81
2023/05/27 08:35:18;;;;;;;10.63;3.55;;;24.80;74.80;;;;;;5037135;28;20266;-81
2023/05/27 08:37:46;;;;;;;11.10;3.88;;;24.90;75.90;;;;;;5040471;28;20304;-81
2023/05/27 08:40:15;;;;;;;10.80;3.90;;;25.00;73.90;;;;;;5036326;28;20217;-81
2023/05/27 08:42:46;;;;;;;8.00;3.40;;;25.30;73.60;;;;;;5040642;28;20985;-81
2023/05/27 08:45:14;;;;;;;11.48;3.70;;;25.60;74.30;;;;;;5030142;28;20218;-81
2023/05/27 08:47:40;;;;;;;8.93;3.70;;;25.80;73.90;;;;;;5034362;28;20331;-81
2023/05/27 08:50:11;;;;;;;10.73;3.90;;;26.20;73.00;;;;;;5037730;28;20216;-81
2023/05/27 08:52:45;;;;;;;12.07;4.25;;;26.50;71.70;;;;;;5032743;28;20295;-81
2023/05/27 08:55:16;;;;;;;9.25;3.70;;;26.80;69.80;;;;;;5035911;28;20219;-81
2023/05/27 08:57:47;;;;;;;9.70;3.92;;;27.20;70.00;;;;;;5032775;28;20274;-82
2023/05/27 09:00:14;;;;;;;9.13;3.78;;;27.60;66.60;;;;;;5035275;28;20228;-82
2023/05/27 09:02:42;;;;;;;10.63;3.80;;;27.80;66.10;;;;;;5034725;28;20220;-81
2023/05/27 09:05:09;;;;;;;22.85;6.38;;;28.00;64.90;;;;;;5037166;28;20251;-81
2023/05/27 09:07:37;;;;;;;8.93;3.72;;;28.20;64.90;;;;;;5039857;28;20539;-81
2023/05/27 09:10:06;;;;;;;8.40;3.33;;;28.40;62.60;;;;;;5037997;28;20267;-82
2023/05/27 09:12:35;;;;;;;10.35;4.15;;;28.50;62.70;;;;;;5050228;28;20231;-81
2023/05/27 09:15:03;;;;;;;10.40;3.50;;;28.60;60.70;;;;;;5041081;28;20220;-81
2023/05/27 09:17:30;;;;;;;8.77;3.53;;;28.70;62.40;;;;;;5038243;28;20798;-81
2023/05/27 09:19:57;;;;;;;11.15;3.88;;;28.80;60.60;;;;;;5041053;28;20705;-81
2023/05/27 09:22:25;;;;;;;10.18;4.15;;;28.80;57.80;;;;;;5039289;28;20236;-82
2023/05/27 09:24:54;;;;;;;10.93;3.88;;;28.90;57.70;;;;;;5037427;28;20677;-82
2023/05/27 09:27:25;;;;;;;10.05;4.25;;;28.90;59.10;;;;;;5039381;28;20220;-81
2023/05/27 09:29:53;;;;;;;11.02;3.88;;;28.90;58.50;;;;;;5038913;28;21005;-82
2023/05/27 09:32:27;;;;;;;10.63;3.78;;;29.00;56.60;;;;;;5037208;28;20224;-82
2023/05/27 09:34:53;;;;;;;16.02;4.00;;;29.00;55.50;;;;;;5039249;28;20208;-82
2023/05/27 09:37:21;;;;;;;11.27;3.97;;;29.00;56.80;;;;;;5047339;28;20294;-82
2023/05/27 09:39:48;;;;;;;9.43;4.28;;;29.00;57.10;;;;;;5039979;28;20236;-82
2023/05/27 09:42:15;;;;;;;8.35;3.30;;;29.10;57.10;;;;;;5042545;28;20216;-82
2023/05/27 09:44:41;;;;;;;10.80;4.25;;;29.30;56.90;;;;;;5037774;28;20224;-82
2023/05/27 09:47:10;;;;;;;11.40;4.35;;;29.60;56.30;;;;;;5038740;28;20307;-82
2023/05/27 09:49:38;;;;;;;9.52;4.05;;;29.80;55.00;;;;;;5038921;28;20879;-81
2023/05/27 09:52:07;;;;;;;9.40;3.90;;;29.80;54.30;;;;;;5034858;28;20710;-82
2023/05/27 09:54:35;;;;;;;10.02;3.58;;;29.60;53.90;;;;;;5037623;28;20236;-81
2023/05/27 09:57:03;;;;;;;9.18;3.75;;;29.30;54.00;;;;;;5043370;28;20630;-81
2023/05/27 09:59:30;;;;;;;7.47;3.60;;;29.00;53.90;;;;;;5040479;28;20224;-81
2023/05/27 10:01:58;;;;;;;9.57;4.10;;;28.70;54.00;;;;;;5034773;28;20228;-79
2023/05/27 10:04:26;;;;;;;8.88;3.80;;;28.50;54.20;;;;;;5043253;28;20227;-79
2023/05/27 10:06:54;;;;;;;10.13;3.65;;;28.40;54.60;;;;;;5038082;28;20228;-79
2023/05/27 10:09:21;;;;;;;8.10;3.90;;;28.30;54.00;;;;;;5038179;28;20264;-79
2023/05/27 10:11:48;;;;;;;9.38;4.35;;;28.20;53.50;;;;;;5037628;28;20310;-79
2023/05/27 10:14:16;;;;;;;8.68;4.30;;;28.10;53.40;;;;;;5039247;28;20243;-80
2023/05/27 10:16:53;;;;;;;7.90;3.85;;;27.90;53.30;;;;;;5034208;28;20208;-79
2023/05/27 10:19:20;;;;;;;8.50;3.95;;;27.90;52.90;;;;;;5032288;28;20227;-79
2023/05/27 10:21:48;;;;;;;8.45;3.63;;;28.10;54.70;;;;;;5043776;28;20224;-80
2023/05/27 10:24:15;;;;;;;7.95;3.92;;;28.20;54.40;;;;;;5034422;28;20220;-79
2023/05/27 10:26:43;;;;;;;7.47;3.92;;;28.50;53.50;;;;;;5040046;28;20252;-80
2023/05/27 10:29:11;;;;;;;7.35;3.92;;;28.70;53.10;;;;;;5037924;28;20220;-80
2023/05/27 10:31:47;;;;;;;8.43;3.35;;;29.10;52.00;;;;;;5037360;28;20232;-80
2023/05/27 10:34:14;;;;;;;8.68;3.50;;;29.40;50.90;;;;;;5039269;28;20223;-79
2023/05/27 10:36:41;;;;;;;8.95;3.90;;;29.50;51.80;;;;;;5038492;28;20282;-80
2023/05/27 10:39:14;;;;;;;7.65;3.78;;;29.70;50.40;;;;;;5036360;28;20215;-80
2023/05/27 10:41:41;;;;;;;8.23;3.53;;;29.70;50.40;;;;;;5038989;28;20228;-79
2023/05/27 10:44:08;;;;;;;8.65;3.70;;;29.80;51.20;;;;;;5042961;28;20223;-79
2023/05/27 10:46:40;;;;;;;10.48;3.53;;;30.00;51.10;;;;;;5040585;28;20232;-80
2023/05/27 10:49:22;;;;;;;5.93;3.53;;;30.20;50.70;;;;;;5045071;28;20319;-79
2023/05/27 10:51:50;;;;;;;7.93;3.92;;;30.30;50.10;;;;;;5041155;28;20253;-79
2023/05/27 10:54:18;;;;;;;7.80;3.58;;;30.50;49.40;;;;;;5045801;28;20216;-80
2023/05/27 10:56:51;;;;;;;9.43;3.85;;;30.60;48.20;;;;;;5045708;28;20216;-80
2023/05/27 10:59:22;;;;;;;7.78;3.90;;;30.60;47.60;;;;;;5038879;28;20686;-80
2023/05/27 11:01:52;;;;;;;9.55;4.43;;;30.60;48.40;;;;;;5036096;28;20215;-79
2023/05/27 11:04:19;;;;;;;10.32;4.53;;;30.50;46.30;;;;;;5053513;28;20241;-80
2023/05/27 11:06:57;;;;;;;7.30;3.78;;;30.30;46.50;;;;;;5036738;28;20220;-80
2023/05/27 11:09:26;;;;;;;7.78;3.88;;;30.10;46.10;;;;;;5042969;28;21038;-79
2023/05/27 11:11:52;;;;;;;9.32;4.00;;;30.00;47.20;;;;;;5033826;28;20240;-79
2023/05/27 11:14:20;;;;;;;7.60;3.97;;;29.80;46.90;;;;;;5040510;28;20728;-79
2023/05/27 11:16:48;;;;;;;8.10;3.78;;;29.80;47.80;;;;;;5040100;28;20220;-80
2023/05/27 11:19:14;;;;;;;7.85;3.97;;;29.80;48.10;;;;;;5043070;28;20220;-79
2023/05/27 11:21:45;;;;;;;8.25;3.67;;;30.00;48.10;;;;;;5038704;28;20242;-79
2023/05/27 11:24:16;;;;;;;9.52;4.15;;;30.30;48.10;;;;;;5041483;28;20270;-80
2023/05/27 11:26:46;;;;;;;9.63;4.65;;;30.50;47.70;;;;;;5039278;28;20931;-80
2023/05/27 11:29:13;;;;;;;10.70;3.83;;;30.70;47.50;;;;;;5041135;28;20224;-80
2023/05/27 11:31:40;;;;;;;9.13;3.95;;;30.80;47.30;;;;;;5034863;28;20220;-79
2023/05/27 11:34:13;;;;;;;9.18;4.15;;;30.80;45.20;;;;;;5041685;28;20885;-79
2023/05/27 11:36:40;;;;;;;8.40;3.95;;;30.60;45.60;;;;;;5041704;28;20232;-80
2023/05/27 11:39:11;;;;;;;7.00;3.88;;;30.20;44.30;;;;;;5040545;28;20212;-79
2023/05/27 11:41:51;;;;;;;8.93;4.00;;;29.80;45.80;;;;;;5041346;28;20224;-80
2023/05/27 11:44:18;;;;;;;8.18;3.70;;;29.40;45.20;;;;;;5035101;28;20220;-80
2023/05/27 11:46:46;;;;;;;9.57;4.45;;;29.20;46.30;;;;;;5045571;28;20221;-80
2023/05/27 11:49:14;;;;;;;8.88;3.50;;;28.90;46.20;;;;;;5040511;28;20217;-79
2023/05/27 11:51:42;;;;;;;9.45;3.88;;;28.80;46.20;;;;;;5045466;28;20496;-80
2023/05/27 11:54:18;;;;;;;8.00;3.92;;;28.70;46.00;;;;;;5042311;28;20310;-80
2023/05/27 11:56:45;;;;;;;7.55;3.70;;;28.60;46.60;;;;;;5046496;28;20697;-79
2023/05/27 11:59:13;;;;;;;8.23;3.33;;;28.70;47.60;;;;;;5042177;28;20216;-79
2023/05/27 12:01:40;;;;;;;7.45;3.70;;;28.70;46.80;;;;;;5039169;28;20294;-80
2023/05/27 12:04:07;;;;;;;7.75;4.20;;;28.80;47.60;;;;;;5040141;28;20231;-80
2023/05/27 12:06:34;;;;;;;8.60;3.88;;;29.00;47.50;;;;;;5040911;28;20929;-79
2023/05/27 12:09:00;;;;;;;8.40;3.70;;;29.10;47.20;;;;;;5044982;28;20964;-79
2023/05/27 12:11:27;;;;;;;8.45;3.85;;;29.20;47.20;;;;;;5041018;28;20240;-79
2023/05/27 12:13:54;;;;;;;8.00;3.83;;;29.30;47.20;;;;;;5041787;28;20240;-80
2023/05/27 12:16:22;;;;;;;7.22;3.88;;;29.30;46.20;;;;;;5037808;28;20226;-80
2023/05/27 12:18:49;;;;;;;9.38;3.80;;;29.40;46.60;;;;;;5043290;28;21472;-80
2023/05/27 12:21:16;;;;;;;12.18;3.90;;;29.50;46.70;;;;;;5046486;28;20235;-80
2023/05/27 12:23:43;;;;;;;7.07;3.42;;;29.80;47.30;;;;;;5029052;28;20224;-79
2023/05/27 12:26:10;;;;;;;8.20;3.75;;;30.00;46.90;;;;;;5034490;28;20227;-80
2023/05/27 12:28:37;;;;;;;7.55;3.83;;;30.20;46.10;;;;;;5041231;28;20274;-80
2023/05/27 12:31:04;;;;;;;7.50;3.78;;;30.20;45.40;;;;;;5037930;28;20597;-80
2023/05/27 12:33:32;;;;;;;8.63;3.40;;;30.10;45.20;;;;;;5047462;28;20232;-80
2023/05/27 12:35:59;;;;;;;7.15;3.28;;;29.90;44.70;;;;;;5039914;28;20709;-80
2023/05/27 12:38:26;;;;;;;8.23;3.40;;;29.80;45.30;;;;;;5043438;28;20221;-80
2023/05/27 12:40:55;;;;;;;8.65;3.50;;;29.70;45.00;;;;;;5041369;28;20235;-80
2023/05/27 12:43:22;;;;;;;6.90;3.60;;;29.60;45.10;;;;;;5044669;28;20306;-80
2023/05/27 12:45:49;;;;;;;7.13;3.30;;;29.60;44.30;;;;;;5042663;28;20610;-80
2023/05/27 12:48:17;;;;;;;6.80;3.13;;;29.40;44.90;;;;;;5045980;28;20219;-80
2023/05/27 12:50:45;;;;;;;9.30;3.67;;;29.30;45.60;;;;;;5037603;28;20235;-80
2023/05/27 12:53:12;;;;;;;8.35;3.40;;;29.30;45.40;;;;;;5037276;28;20259;-80
2023/05/27 12:55:39;;;;;;;7.35;3.15;;;29.30;45.30;;;;;;5041065;28;20258;-80
2023/05/27 12:58:06;;;;;;;9.57;3.30;;;29.30;45.30;;;;;;5043463;28;20278;-80